createdAt,value
2022-08-29T00:00:08.666Z,60.80
2022-08-29T00:02:52.479Z,61.00
2022-08-29T00:05:24.386Z,60.59
2022-08-29T00:07:55.793Z,60.35
2022-08-29T00:10:25.709Z,60.24
2022-08-29T00:12:54.228Z,60.79
2022-08-29T00:15:26.140Z,60.47
2022-08-29T00:17:54.783Z,60.36
2022-08-29T00:20:33.991Z,61.01
2022-08-29T00:23:06.507Z,60.92
2022-08-29T00:25:33.987Z,60.77
2022-08-29T00:28:06.845Z,60.24
2022-08-29T00:30:35.473Z,59.85
2022-08-29T00:33:06.594Z,60.18
2022-08-29T00:35:40.600Z,59.88
2022-08-29T00:38:11.314Z,60.48
2022-08-29T00:40:43.191Z,61.17
2022-08-29T00:43:25.165Z,61.09
2022-08-29T00:46:11.518Z,61.71
2022-08-29T00:48:39.997Z,61.19
2022-08-29T00:51:13.029Z,62.23
2022-08-29T00:53:42.565Z,62.29
2022-08-29T00:56:10.295Z,62.15
2022-08-29T00:58:41.830Z,62.00
2022-08-29T01:01:12.512Z,63.33
2022-08-29T01:03:41.023Z,66.65
2022-08-29T01:06:16.250Z,65.66
2022-08-29T01:08:44.855Z,65.21
2022-08-29T01:11:31.760Z,65.35
2022-08-29T01:14:02.299Z,65.16
2022-08-29T01:16:30.209Z,65.00
2022-08-29T01:19:00.888Z,65.37
2022-08-29T01:21:38.907Z,65.56
2022-08-29T01:24:16.520Z,68.53
2022-08-29T01:26:48.439Z,68.90
2022-08-29T01:29:18.992Z,71.13
2022-08-29T01:31:57.239Z,69.74
2022-08-29T01:34:26.936Z,68.43
2022-08-29T01:36:59.977Z,68.00
2022-08-29T01:39:29.636Z,67.92
2022-08-29T01:42:01.125Z,68.24
2022-08-29T01:44:31.788Z,69.74
2022-08-29T01:47:03.644Z,69.52
2022-08-29T01:49:38.734Z,70.07
2022-08-29T01:52:12.936Z,69.29
2022-08-29T01:54:42.150Z,68.98
2022-08-29T01:57:13.248Z,68.54
2022-08-29T01:59:41.984Z,69.16
2022-08-29T02:02:11.444Z,69.35
2022-08-29T02:04:45.603Z,69.93
2022-08-29T02:07:14.288Z,70.84
2022-08-29T02:09:45.534Z,71.24
2022-08-29T02:12:14.601Z,69.94
2022-08-29T02:14:47.130Z,69.42
2022-08-29T02:17:16.940Z,68.52
2022-08-29T02:19:47.755Z,68.39
2022-08-29T02:22:15.972Z,68.32
2022-08-29T02:24:46.567Z,71.85
2022-08-29T02:27:17.549Z,71.79
2022-08-29T02:29:47.004Z,70.63
2022-08-29T02:32:17.334Z,70.58
2022-08-29T02:34:48.577Z,69.92
2022-08-29T02:37:19.779Z,69.40
2022-08-29T02:39:51.915Z,69.53
2022-08-29T02:42:20.063Z,69.69
2022-08-29T02:44:50.002Z,69.31
2022-08-29T02:47:18.986Z,72.14
2022-08-29T02:49:49.337Z,75.33
2022-08-29T02:52:17.774Z,74.48
2022-08-29T02:54:45.358Z,73.04
2022-08-29T02:57:15.826Z,72.04
2022-08-29T02:59:46.745Z,71.03
2022-08-29T03:02:17.409Z,70.75
2022-08-29T03:04:46.440Z,71.04
2022-08-29T03:07:17.069Z,71.06
2022-08-29T03:09:44.964Z,71.06
2022-08-29T03:12:15.740Z,70.90
2022-08-29T03:14:47.112Z,72.03
2022-08-29T03:17:14.848Z,72.19
2022-08-29T03:19:42.874Z,71.69
2022-08-29T03:22:10.763Z,71.13
2022-08-29T03:24:39.466Z,70.83
2022-08-29T03:27:10.922Z,70.89
2022-08-29T03:29:38.638Z,72.26
2022-08-29T03:32:08.902Z,71.45
2022-08-29T03:34:39.977Z,70.57
2022-08-29T03:37:09.985Z,71.43
2022-08-29T03:39:40.678Z,71.79
2022-08-29T03:42:09.262Z,71.12
2022-08-29T03:44:37.437Z,71.79
2022-08-29T03:47:06.003Z,71.96
2022-08-29T03:49:37.234Z,71.38
2022-08-29T03:52:10.908Z,70.43
2022-08-29T03:54:41.349Z,70.78
2022-08-29T03:57:35.254Z,70.87
2022-08-29T04:00:13.954Z,70.68
2022-08-29T04:02:41.768Z,71.90
2022-08-29T04:05:11.076Z,71.81
2022-08-29T04:08:01.702Z,70.64
2022-08-29T04:10:52.730Z,69.60
2022-08-29T04:13:20.155Z,70.55
2022-08-29T04:15:47.960Z,69.74
2022-08-29T04:18:21.324Z,69.00
2022-08-29T04:20:52.590Z,72.18
2022-08-29T04:23:21.214Z,73.64
2022-08-29T04:26:02.885Z,73.54
2022-08-29T04:28:43.551Z,71.38
2022-08-29T04:31:20.432Z,72.96
2022-08-29T04:33:51.129Z,73.74
2022-08-29T04:36:19.090Z,72.52
2022-08-29T04:38:49.198Z,71.63
2022-08-29T04:41:16.781Z,71.39
2022-08-29T04:43:47.662Z,71.19
2022-08-29T04:46:23.977Z,70.70
2022-08-29T04:48:53.243Z,70.77
2022-08-29T04:51:21.156Z,70.63
2022-08-29T04:53:50.338Z,70.43
2022-08-29T04:56:18.689Z,70.48
2022-08-29T04:58:47.486Z,70.29
2022-08-29T05:01:16.851Z,70.19
2022-08-29T05:03:46.594Z,70.44
2022-08-29T05:06:15.912Z,70.45
2022-08-29T05:08:48.267Z,70.38
2022-08-29T05:11:26.434Z,71.84
2022-08-29T05:14:00.108Z,73.47
2022-08-29T05:16:32.052Z,72.14
2022-08-29T05:19:05.912Z,70.79
2022-08-29T05:21:36.593Z,70.88
2022-08-29T05:24:08.050Z,72.32
2022-08-29T05:26:38.181Z,71.42
2022-08-29T05:29:08.399Z,71.96
2022-08-29T05:31:38.494Z,71.22
2022-08-29T05:34:14.054Z,70.68
2022-08-29T05:37:02.460Z,70.14
2022-08-29T05:39:30.308Z,71.19
2022-08-29T05:42:01.226Z,73.44
2022-08-29T05:44:34.317Z,73.13
2022-08-29T05:47:06.513Z,73.05
2022-08-29T05:49:36.008Z,72.29
2022-08-29T05:52:10.612Z,73.35
2022-08-29T05:54:41.922Z,72.58
2022-08-29T05:57:19.416Z,72.60
2022-08-29T05:59:50.126Z,73.24
2022-08-29T06:02:18.263Z,73.48
2022-08-29T06:04:46.343Z,73.40
2022-08-29T06:07:21.900Z,72.50
2022-08-29T06:10:03.685Z,71.99
2022-08-29T06:12:35.081Z,71.75
2022-08-29T06:15:04.856Z,71.63
2022-08-29T06:17:35.664Z,71.40
2022-08-29T06:20:10.086Z,70.52
2022-08-29T06:22:41.247Z,70.07
2022-08-29T06:25:37.383Z,70.20
2022-08-29T06:28:05.633Z,70.26
2022-08-29T06:30:36.509Z,70.14
2022-08-29T06:33:10.285Z,68.96
2022-08-29T06:35:40.771Z,69.35
2022-08-29T06:38:13.317Z,69.44
2022-08-29T06:40:44.495Z,68.75
2022-08-29T06:43:17.856Z,65.91
2022-08-29T06:45:46.907Z,67.57
2022-08-29T06:48:18.400Z,66.69
2022-08-29T06:50:48.509Z,66.55
2022-08-29T06:53:29.832Z,66.94
2022-08-29T06:56:25.017Z,66.48
2022-08-29T06:58:54.151Z,66.81
2022-08-29T07:01:22.065Z,66.13
2022-08-29T07:03:49.960Z,66.14
2022-08-29T07:06:19.971Z,67.14
2022-08-29T07:08:55.429Z,66.15
2022-08-29T07:11:28.227Z,66.34
2022-08-29T07:13:56.412Z,63.91
2022-08-29T07:16:23.988Z,65.26
2022-08-29T07:19:02.334Z,64.65
2022-08-29T07:21:30.303Z,65.95
2022-08-29T07:24:00.685Z,63.49
2022-08-29T07:26:29.693Z,63.97
2022-08-29T07:28:59.303Z,63.12
2022-08-29T07:31:30.984Z,63.23
2022-08-29T07:34:02.225Z,63.44
2022-08-29T07:36:34.637Z,63.15
2022-08-29T07:39:04.330Z,63.04
2022-08-29T07:41:32.390Z,62.69
2022-08-29T07:44:00.166Z,63.71
2022-08-29T07:46:27.643Z,61.30
2022-08-29T07:48:58.395Z,62.42
2022-08-29T07:51:26.799Z,63.46
2022-08-29T07:53:54.680Z,62.10
2022-08-29T07:56:25.737Z,62.93
2022-08-29T07:58:55.803Z,62.70
2022-08-29T08:01:23.584Z,61.75
2022-08-29T08:03:51.533Z,63.62
2022-08-29T08:06:19.812Z,62.43
2022-08-29T08:08:47.396Z,61.71
2022-08-29T08:11:15.110Z,60.94
2022-08-29T08:13:42.793Z,61.09
2022-08-29T08:16:11.521Z,59.20
2022-08-29T08:18:44.223Z,58.75
2022-08-29T08:21:11.896Z,57.59
2022-08-29T08:23:41.791Z,59.10
2022-08-29T08:26:11.969Z,58.15
2022-08-29T08:28:45.207Z,59.15
2022-08-29T08:31:15.171Z,58.21
2022-08-29T08:33:42.897Z,59.61
2022-08-29T08:36:16.361Z,60.23
2022-08-29T08:38:43.875Z,60.39
2022-08-29T08:41:30.159Z,60.12
2022-08-29T08:43:58.852Z,58.16
2022-08-29T08:46:43.151Z,59.37
2022-08-29T08:49:23.361Z,60.21
2022-08-29T08:51:53.829Z,59.13
2022-08-29T08:54:26.131Z,58.91
2022-08-29T08:57:10.376Z,60.08
2022-08-29T08:59:45.496Z,61.04
2022-08-29T09:02:31.512Z,60.62
2022-08-29T09:05:18.639Z,59.61
2022-08-29T09:08:01.757Z,59.26
2022-08-29T09:11:16.613Z,57.35
2022-08-29T09:13:56.745Z,58.73
2022-08-29T09:16:29.332Z,59.87
2022-08-29T09:18:59.686Z,60.32
2022-08-29T09:21:42.884Z,59.38
2022-08-29T09:24:11.860Z,59.27
2022-08-29T09:26:44.773Z,56.19
2022-08-29T09:29:14.007Z,58.33
2022-08-29T09:31:44.859Z,57.08
2022-08-29T09:34:13.315Z,61.92
2022-08-29T09:36:45.905Z,61.38
2022-08-29T09:39:18.510Z,59.23
2022-08-29T09:41:51.753Z,59.17
2022-08-29T09:44:29.183Z,57.63
2022-08-29T09:47:04.302Z,56.31
2022-08-29T09:50:02.425Z,58.58
2022-08-29T09:52:30.069Z,57.30
2022-08-29T09:54:57.892Z,58.52
2022-08-29T09:57:26.795Z,57.39
2022-08-29T10:00:13.783Z,58.45
2022-08-29T10:02:48.493Z,59.16
2022-08-29T10:05:31.135Z,58.87
2022-08-29T10:08:05.118Z,58.26
2022-08-29T10:10:38.017Z,55.77
2022-08-29T10:13:20.408Z,56.42
2022-08-29T10:15:54.094Z,56.12
2022-08-29T10:19:01.873Z,57.33
2022-08-29T10:21:34.875Z,57.39
2022-08-29T10:24:20.569Z,56.56
2022-08-29T10:26:57.274Z,56.45
2022-08-29T10:29:31.750Z,55.51
2022-08-29T10:32:27.032Z,57.76
2022-08-29T10:35:13.862Z,54.16
2022-08-29T10:38:00.234Z,56.72
2022-08-29T10:40:32.785Z,54.34
2022-08-29T10:43:08.185Z,55.31
2022-08-29T10:45:45.154Z,53.84
2022-08-29T10:48:27.449Z,53.43
2022-08-29T10:51:24.532Z,51.49
2022-08-29T10:53:53.516Z,51.50
2022-08-29T10:56:47.248Z,50.58
2022-08-29T10:59:24.544Z,50.30
2022-08-29T11:01:57.824Z,49.23
2022-08-29T11:04:30.397Z,51.31
2022-08-29T11:07:21.179Z,54.45
2022-08-29T11:10:02.543Z,50.90
2022-08-29T11:12:59.972Z,52.63
2022-08-29T11:15:29.152Z,52.75
2022-08-29T11:18:06.218Z,54.45
2022-08-29T11:20:35.959Z,52.89
2022-08-29T11:23:13.778Z,54.71
2022-08-29T11:25:42.091Z,54.45
2022-08-29T11:28:10.301Z,55.75
2022-08-29T11:30:48.219Z,51.50
2022-08-29T11:33:28.350Z,49.97
2022-08-29T11:35:55.961Z,43.17
2022-08-29T11:38:44.338Z,41.04
2022-08-29T11:41:30.829Z,43.47
2022-08-29T11:44:04.679Z,40.20
2022-08-29T11:46:35.405Z,36.12
2022-08-29T11:49:21.663Z,35.42
2022-08-29T11:52:22.303Z,36.22
2022-08-29T11:54:54.842Z,32.59
2022-08-29T11:57:34.285Z,33.42
2022-08-29T12:00:05.309Z,33.14
2022-08-29T12:02:36.858Z,34.06
2022-08-29T12:05:07.951Z,31.63
2022-08-29T12:07:36.807Z,31.70
2022-08-29T12:10:24.755Z,35.50
2022-08-29T12:12:53.765Z,35.98
2022-08-29T12:15:27.351Z,33.17
2022-08-29T12:18:04.476Z,34.38
2022-08-29T12:20:41.699Z,32.70
2022-08-29T12:23:15.673Z,32.13
2022-08-29T12:26:09.667Z,33.63
2022-08-29T12:28:49.317Z,34.74
2022-08-29T12:31:35.625Z,30.63
2022-08-29T12:34:23.475Z,28.35
2022-08-29T12:36:56.969Z,31.31
2022-08-29T12:39:39.812Z,33.02
2022-08-29T12:42:25.322Z,33.94
2022-08-29T12:45:00.703Z,35.12
2022-08-29T12:47:34.103Z,36.72
2022-08-29T12:50:10.192Z,30.10
2022-08-29T12:52:40.016Z,32.11
2022-08-29T12:55:26.807Z,31.06
2022-08-29T12:58:02.165Z,33.14
2022-08-29T13:00:33.691Z,31.58
2022-08-29T13:03:04.561Z,33.31
2022-08-29T13:05:38.639Z,28.73
2022-08-29T13:08:11.025Z,29.91
2022-08-29T13:10:57.558Z,30.52
2022-08-29T13:13:25.449Z,29.12
2022-08-29T13:15:53.876Z,31.09
2022-08-29T13:18:24.748Z,33.44
2022-08-29T13:21:10.644Z,34.46
2022-08-29T13:23:48.230Z,32.22
2022-08-29T13:26:20.258Z,31.99
2022-08-29T13:28:51.326Z,32.47
2022-08-29T13:31:19.106Z,31.56
2022-08-29T13:33:49.023Z,31.52
2022-08-29T13:36:35.295Z,33.57
2022-08-29T13:39:17.721Z,32.92
2022-08-29T13:41:50.993Z,31.77
2022-08-29T13:44:20.725Z,32.02
2022-08-29T13:46:48.549Z,33.91
2022-08-29T13:49:23.996Z,35.80
2022-08-29T13:51:51.570Z,36.78
2022-08-29T13:54:21.694Z,38.66
2022-08-29T13:56:56.743Z,37.46
2022-08-29T14:02:10.673Z,40.81
2022-08-29T14:04:48.525Z,39.81
2022-08-29T14:07:18.106Z,41.74
2022-08-29T14:09:50.045Z,42.64
2022-08-29T14:12:18.641Z,44.73
2022-08-29T14:14:47.505Z,43.20
2022-08-29T14:17:26.608Z,43.70
2022-08-29T14:19:59.511Z,43.76
2022-08-29T14:22:28.131Z,45.78
2022-08-29T14:33:43.557Z,45.37
2022-08-29T14:36:19.006Z,46.02
2022-08-29T14:38:52.343Z,44.02
2022-08-29T14:41:23.039Z,43.84
2022-08-29T14:43:54.947Z,48.40
2022-08-29T14:46:27.770Z,45.78
2022-08-29T14:48:55.929Z,46.24
2022-08-29T14:51:31.261Z,45.86
2022-08-29T14:54:01.203Z,46.17
2022-08-29T14:56:47.642Z,45.12
2022-08-29T14:59:21.955Z,45.37
2022-08-29T15:01:57.225Z,47.28
2022-08-29T15:04:36.737Z,47.26
2022-08-29T15:07:15.424Z,46.81
2022-08-29T15:09:48.971Z,47.25
2022-08-29T15:12:22.843Z,45.89
2022-08-29T15:14:56.872Z,47.58
2022-08-29T15:17:30.945Z,45.45
2022-08-29T15:23:04.821Z,45.75
2022-08-29T15:25:35.665Z,45.75
2022-08-29T15:28:13.122Z,49.70
2022-08-29T15:30:43.503Z,47.97
2022-08-29T15:33:18.148Z,46.64
2022-08-29T15:35:52.109Z,46.73
2022-08-29T15:38:26.493Z,47.80
2022-08-29T15:41:03.154Z,47.03
2022-08-29T15:43:39.996Z,45.54
2022-08-29T15:46:23.245Z,46.21
2022-08-29T15:49:01.123Z,47.05
2022-08-29T15:51:37.483Z,47.54
2022-08-29T15:54:11.396Z,47.07
2022-08-29T15:56:47.899Z,49.69
2022-08-29T15:59:41.463Z,48.62
2022-08-29T16:02:28.217Z,48.04
2022-08-29T16:05:05.073Z,48.70
2022-08-29T16:07:38.300Z,49.32
2022-08-29T16:10:13.118Z,49.21
2022-08-29T16:12:50.427Z,48.86
2022-08-29T16:15:27.965Z,49.02
2022-08-29T16:18:02.542Z,50.41
2022-08-29T16:20:38.042Z,49.78
2022-08-29T16:23:07.165Z,50.62
2022-08-29T16:25:41.411Z,52.92
2022-08-29T16:28:15.326Z,49.45
2022-08-29T16:30:45.862Z,49.03
2022-08-29T16:33:19.807Z,48.19
2022-08-29T16:35:55.935Z,47.66
2022-08-29T16:38:32.264Z,50.72
2022-08-29T16:41:10.446Z,50.17
2022-08-29T16:43:42.407Z,50.57
2022-08-29T16:46:21.974Z,51.61
2022-08-29T16:48:55.582Z,49.23
2022-08-29T16:51:32.022Z,48.48
2022-08-29T16:54:05.459Z,50.21
2022-08-29T16:56:35.150Z,53.60
2022-08-29T16:59:04.857Z,52.30
2022-08-29T17:01:37.904Z,50.78
2022-08-29T17:04:10.868Z,51.89
2022-08-29T17:06:48.190Z,50.37
2022-08-29T17:09:17.235Z,49.98
2022-08-29T17:11:48.327Z,49.18
2022-08-29T17:14:20.339Z,51.51
2022-08-29T17:16:53.958Z,51.81
2022-08-29T17:19:22.338Z,54.62
2022-08-29T17:21:53.840Z,52.43
2022-08-29T17:24:23.844Z,52.61
2022-08-29T17:26:59.380Z,52.89
2022-08-29T17:29:34.353Z,53.05
2022-08-29T17:32:06.481Z,50.54
2022-08-29T17:34:34.225Z,52.09
2022-08-29T17:37:04.388Z,50.53
2022-08-29T17:39:39.769Z,52.96
2022-08-29T17:42:12.218Z,52.20
2022-08-29T17:44:44.539Z,54.03
2022-08-29T17:47:17.188Z,53.24
2022-08-29T17:49:50.611Z,53.39
2022-08-29T17:52:21.640Z,54.18
2022-08-29T17:54:55.044Z,54.89
2022-08-29T17:57:26.222Z,55.57
2022-08-29T17:59:56.950Z,54.58
2022-08-29T18:02:32.110Z,55.63
2022-08-29T18:05:17.997Z,56.23
2022-08-29T18:07:52.400Z,56.42
2022-08-29T18:10:25.879Z,56.22
2022-08-29T18:12:57.188Z,56.40
2022-08-29T18:15:35.530Z,56.06
2022-08-29T18:18:06.235Z,56.93
2022-08-29T18:20:38.238Z,56.36
2022-08-29T18:23:16.863Z,57.03
2022-08-29T18:25:48.061Z,56.40
2022-08-29T18:28:19.259Z,57.15
2022-08-29T18:30:53.027Z,56.98
2022-08-29T18:33:28.457Z,57.09
2022-08-29T18:36:10.587Z,56.97
2022-08-29T18:38:39.141Z,57.23
2022-08-29T18:41:09.140Z,57.15
2022-08-29T18:43:36.741Z,57.31
2022-08-29T18:46:09.637Z,57.59
2022-08-29T18:48:37.497Z,57.93
2022-08-29T18:51:10.936Z,57.73
2022-08-29T18:53:41.671Z,57.08
2022-08-29T18:56:17.124Z,57.91
2022-08-29T18:58:46.947Z,58.12
2022-08-29T19:01:27.839Z,57.67
2022-08-29T19:03:59.915Z,55.27
2022-08-29T19:06:27.534Z,56.43
2022-08-29T19:09:00.045Z,58.66
2022-08-29T19:11:30.103Z,58.21
2022-08-29T19:14:01.415Z,58.53
2022-08-29T19:16:30.172Z,57.68
2022-08-29T19:19:01.371Z,58.84
2022-08-29T19:21:31.294Z,59.19
2022-08-29T19:24:01.897Z,58.65
2022-08-29T19:26:35.960Z,58.81
2022-08-29T19:29:14.108Z,57.97
2022-08-29T19:31:42.221Z,58.81
2022-08-29T19:34:15.608Z,58.86
2022-08-29T19:36:48.711Z,58.72
2022-08-29T19:39:22.423Z,58.04
2022-08-29T19:41:56.292Z,58.81
2022-08-29T19:44:27.550Z,58.80
2022-08-29T19:46:58.527Z,58.42
2022-08-29T19:49:29.430Z,59.89
2022-08-29T19:51:59.776Z,59.78
2022-08-29T19:54:35.348Z,58.92
2022-08-29T19:57:05.891Z,59.03
2022-08-29T19:59:35.554Z,59.77
2022-08-29T20:02:08.788Z,58.56
2022-08-29T20:04:44.067Z,59.65
2022-08-29T20:07:17.174Z,59.94
2022-08-29T20:09:45.571Z,58.99
2022-08-29T20:12:18.349Z,59.37
2022-08-29T20:14:50.992Z,60.28
2022-08-29T20:17:23.949Z,60.03
2022-08-29T20:19:51.561Z,61.07
2022-08-29T20:22:20.640Z,61.02
2022-08-29T20:24:53.549Z,60.88
2022-08-29T20:27:24.253Z,60.25
2022-08-29T20:29:52.120Z,60.41
2022-08-29T20:32:19.876Z,60.23
2022-08-29T20:34:53.178Z,60.49
2022-08-29T20:37:25.948Z,60.34
2022-08-29T20:39:56.727Z,60.23
2022-08-29T20:42:30.851Z,61.12
2022-08-29T20:45:01.319Z,60.67
2022-08-29T20:47:31.646Z,60.47
2022-08-29T20:50:01.972Z,60.31
2022-08-29T20:52:34.763Z,58.82
2022-08-29T20:55:07.873Z,61.31
2022-08-29T20:57:41.412Z,61.67
2022-08-29T21:00:10.280Z,62.50
2022-08-29T21:03:01.652Z,62.37
2022-08-29T21:05:44.857Z,62.28
2022-08-29T21:08:16.805Z,62.44
2022-08-29T21:10:48.282Z,62.22
2022-08-29T21:13:20.571Z,62.20
2022-08-29T21:15:54.521Z,62.55
2022-08-29T21:18:27.244Z,62.49
2022-08-29T21:20:58.731Z,62.78
2022-08-29T21:23:29.375Z,62.59
2022-08-29T21:26:03.673Z,63.63
2022-08-29T21:28:33.487Z,64.25
2022-08-29T21:31:08.168Z,64.27
2022-08-29T21:33:42.689Z,64.64
2022-08-29T21:36:18.700Z,63.96
2022-08-29T21:38:51.558Z,65.06
2022-08-29T21:41:22.243Z,64.72
2022-08-29T21:43:53.100Z,64.34
2022-08-29T21:46:25.762Z,64.64
2022-08-29T21:48:56.505Z,64.10
2022-08-29T21:51:27.843Z,64.28
2022-08-29T21:53:58.778Z,64.25
2022-08-29T21:56:30.894Z,63.71
2022-08-29T21:58:59.047Z,64.52
2022-08-29T22:01:33.545Z,64.54
2022-08-29T22:04:01.848Z,64.54
2022-08-29T22:06:35.723Z,64.29
2022-08-29T22:09:03.787Z,64.08
2022-08-29T22:11:37.339Z,63.90
2022-08-29T22:14:06.747Z,63.43
2022-08-29T22:16:37.532Z,64.43
2022-08-29T22:19:09.070Z,63.61
2022-08-29T22:21:47.031Z,64.38
2022-08-29T22:24:17.680Z,63.85
2022-08-29T22:26:45.358Z,63.43
2022-08-29T22:29:16.197Z,63.92
2022-08-29T22:31:49.852Z,63.68
2022-08-29T22:34:26.238Z,63.82
2022-08-29T22:36:59.219Z,64.62
2022-08-29T22:39:29.887Z,64.68
2022-08-29T22:42:00.620Z,64.14
2022-08-29T22:47:27.346Z,64.84
2022-08-29T22:50:01.110Z,64.48
2022-08-29T22:52:29.116Z,64.40
2022-08-29T22:54:59.433Z,64.76
2022-08-29T22:57:29.416Z,65.18
2022-08-29T23:00:00.048Z,64.64
2022-08-29T23:02:29.315Z,63.79
2022-08-29T23:05:00.231Z,64.58
2022-08-29T23:07:33.803Z,63.76
2022-08-29T23:10:03.557Z,63.40
2022-08-29T23:12:36.774Z,63.82
2022-08-29T23:15:11.388Z,64.49
2022-08-29T23:17:39.596Z,64.40
2022-08-29T23:20:12.830Z,65.01
2022-08-29T23:22:43.336Z,64.05
2022-08-29T23:25:14.800Z,65.28
2022-08-29T23:27:45.195Z,64.96
2022-08-29T23:30:20.844Z,64.69
2022-08-29T23:32:51.427Z,64.73
2022-08-29T23:35:21.783Z,64.67
2022-08-29T23:37:54.908Z,64.62
2022-08-29T23:40:22.866Z,64.21
2022-08-29T23:42:51.646Z,64.23
2022-08-29T23:45:24.916Z,63.92
2022-08-29T23:47:52.611Z,64.23
2022-08-29T23:50:23.533Z,65.11
2022-08-29T23:52:51.074Z,65.44
2022-08-29T23:55:21.381Z,64.82
2022-08-29T23:57:51.755Z,64.34
